createdAt,value
2023-04-02T20:05:21.986Z,2.80
2023-04-02T20:11:27.902Z,1.83
2023-04-02T20:13:57.026Z,3.03
2023-04-02T20:16:25.525Z,3.08
2023-04-02T20:18:59.526Z,2.22
2023-04-02T20:21:28.267Z,2.75
2023-04-02T20:23:59.869Z,2.85
2023-04-02T20:26:30.259Z,4.00
2023-04-02T20:33:25.337Z,3.90
2023-04-02T20:36:20.099Z,4.72
2023-04-02T20:39:19.525Z,4.55
2023-04-02T20:44:41.576Z,3.83
2023-04-02T20:47:11.168Z,5.32
2023-04-02T20:49:39.789Z,5.22
2023-04-02T20:52:08.968Z,3.67
2023-04-02T20:54:38.874Z,2.90
2023-04-02T20:57:08.159Z,2.50
2023-04-02T20:59:40.194Z,2.70
2023-04-02T21:02:14.110Z,3.00
2023-04-02T21:04:42.753Z,3.25
2023-04-02T21:07:11.436Z,2.20
2023-04-02T21:09:39.761Z,3.42
2023-04-02T21:12:09.566Z,2.72
2023-04-02T21:17:26.229Z,2.60
2023-04-02T21:19:55.016Z,2.33
2023-04-02T21:22:24.025Z,2.42
2023-04-02T21:24:52.754Z,2.00
2023-04-02T21:27:26.108Z,2.10
2023-04-02T21:29:55.568Z,2.47
2023-04-02T21:32:24.643Z,2.28
2023-04-02T21:34:55.059Z,2.75
2023-04-02T21:37:25.130Z,2.58
2023-04-02T21:39:53.944Z,2.35
2023-04-02T21:42:22.829Z,2.28
2023-04-02T21:44:51.553Z,1.98
2023-04-02T21:47:24.331Z,2.15
2023-04-02T21:49:53.687Z,2.08
2023-04-02T21:52:23.267Z,2.17
2023-04-02T21:54:51.660Z,2.30
2023-04-02T21:57:25.080Z,2.60
2023-04-02T21:59:57.346Z,2.20
2023-04-02T22:02:27.664Z,1.98
2023-04-02T22:04:56.425Z,1.90
2023-04-02T22:07:28.249Z,2.00
2023-04-02T22:09:57.039Z,2.03
2023-04-02T22:12:26.147Z,1.40
2023-04-02T22:18:03.262Z,3.05
2023-04-02T22:20:31.687Z,2.42
2023-04-02T22:23:00.649Z,2.30
2023-04-02T22:25:29.989Z,1.83
2023-04-02T22:27:59.129Z,1.90
2023-04-02T22:30:30.429Z,2.30
2023-04-02T22:32:59.121Z,1.67
2023-04-02T22:35:30.920Z,1.85
2023-04-02T22:37:59.682Z,1.80
2023-04-02T22:40:28.011Z,1.60
2023-04-02T22:42:59.703Z,2.00
2023-04-02T22:45:29.503Z,2.05
2023-04-02T22:47:58.164Z,1.60
2023-04-02T22:50:27.401Z,1.70
2023-04-02T22:52:56.340Z,1.70
2023-04-02T22:55:26.715Z,1.80
2023-04-02T22:57:55.764Z,2.20
2023-04-02T23:00:24.303Z,1.75
2023-04-02T23:02:53.027Z,1.90
2023-04-02T23:05:21.478Z,1.83
2023-04-02T23:07:51.990Z,1.80
2023-04-02T23:10:20.687Z,1.45
2023-04-02T23:12:49.417Z,1.70
2023-04-02T23:15:18.119Z,2.03
2023-04-02T23:17:47.064Z,1.80
2023-04-02T23:20:15.720Z,1.70
2023-04-02T23:22:44.955Z,1.67
2023-04-02T23:25:13.219Z,2.05
2023-04-02T23:27:42.037Z,1.63
2023-04-02T23:30:10.756Z,1.65
2023-04-02T23:32:39.690Z,1.85
2023-04-02T23:35:08.782Z,1.80
2023-04-02T23:37:37.835Z,1.85
2023-04-02T23:40:06.874Z,1.85
2023-04-02T23:42:35.855Z,1.80
2023-04-02T23:45:04.447Z,1.40
2023-04-02T23:47:33.361Z,1.85
2023-04-02T23:50:02.025Z,1.70
2023-04-02T23:52:30.970Z,1.70
2023-04-02T23:54:59.313Z,1.17
2023-04-02T23:57:28.243Z,2.00
2023-04-02T23:59:56.610Z,1.58
